createdAt,value
2019-01-08T00:01:25.219Z,12.70
2019-01-08T00:03:54.518Z,14.97
2019-01-08T00:06:24.686Z,14.40
2019-01-08T00:08:55.182Z,14.10
2019-01-08T00:11:26.357Z,14.17
2019-01-08T00:13:56.600Z,11.50
2019-01-08T00:16:26.777Z,9.80
2019-01-08T00:18:56.029Z,10.07
2019-01-08T00:21:26.231Z,8.43
2019-01-08T00:23:55.464Z,8.33
2019-01-08T00:26:24.778Z,6.40
2019-01-08T00:28:54.035Z,5.87
2019-01-08T00:31:23.282Z,5.70
2019-01-08T00:33:52.531Z,4.90
2019-01-08T00:36:21.785Z,4.60
2019-01-08T00:38:51.039Z,4.50
2019-01-08T00:41:20.483Z,4.20
2019-01-08T00:43:49.709Z,4.37
2019-01-08T00:46:18.992Z,4.50
2019-01-08T00:48:50.351Z,4.93
2019-01-08T00:51:20.607Z,4.30
2019-01-08T00:53:49.881Z,4.50
2019-01-08T00:56:20.140Z,5.37
2019-01-08T00:58:51.720Z,4.67
2019-01-08T01:01:20.325Z,5.63
2019-01-08T01:03:50.592Z,5.43
2019-01-08T01:06:19.914Z,4.93
2019-01-08T01:08:49.157Z,4.63
2019-01-08T01:11:18.399Z,4.60
2019-01-08T01:13:47.647Z,4.53
2019-01-08T01:16:17.920Z,4.33
2019-01-08T01:18:47.156Z,3.37
2019-01-08T01:21:17.304Z,3.43
2019-01-08T01:23:47.529Z,3.33
2019-01-08T01:26:16.779Z,3.07
2019-01-08T01:28:46.957Z,3.80
2019-01-08T01:31:16.210Z,3.23
2019-01-08T01:33:45.453Z,3.40
2019-01-08T01:36:14.704Z,3.57
2019-01-08T01:38:43.953Z,3.37
2019-01-08T01:41:13.208Z,3.23
2019-01-08T01:43:42.462Z,3.40
2019-01-08T01:46:11.726Z,3.07
2019-01-08T01:48:41.007Z,3.70
2019-01-08T01:51:10.260Z,2.93
2019-01-08T01:53:39.520Z,3.83
2019-01-08T01:56:08.770Z,3.47
2019-01-08T01:58:38.011Z,2.70
2019-01-08T02:01:07.271Z,3.00
2019-01-08T02:03:36.515Z,3.10
2019-01-08T02:06:05.758Z,3.07
2019-01-08T02:08:35.992Z,2.93
2019-01-08T02:11:05.245Z,3.17
2019-01-08T02:13:34.590Z,3.70
2019-01-08T02:16:03.823Z,3.50
2019-01-08T02:18:33.049Z,3.13
2019-01-08T02:21:03.309Z,2.83
2019-01-08T02:23:32.540Z,3.23
2019-01-08T02:26:01.815Z,3.10
2019-01-08T02:28:31.037Z,2.77
2019-01-08T02:31:00.274Z,3.77
2019-01-08T02:33:29.526Z,3.20
2019-01-08T02:35:58.769Z,3.30
2019-01-08T02:38:28.022Z,3.00
2019-01-08T02:40:57.255Z,2.83
2019-01-08T02:43:26.499Z,3.83
2019-01-08T02:45:55.853Z,3.43
2019-01-08T02:48:25.093Z,3.37
2019-01-08T02:50:54.322Z,3.73
2019-01-08T02:53:23.568Z,3.50
2019-01-08T02:55:52.825Z,4.07
2019-01-08T02:58:22.120Z,3.67
2019-01-08T03:00:51.372Z,3.93
2019-01-08T03:03:20.624Z,4.33
2019-01-08T03:05:50.823Z,4.07
2019-01-08T03:08:20.094Z,3.93
2019-01-08T03:10:49.350Z,5.00
2019-01-08T03:13:18.585Z,4.80
2019-01-08T03:15:47.810Z,5.07
2019-01-08T03:18:17.061Z,5.63
2019-01-08T03:20:46.303Z,5.63
2019-01-08T03:23:15.539Z,5.30
2019-01-08T03:25:44.794Z,5.00
2019-01-08T03:28:14.052Z,5.20
2019-01-08T03:30:43.304Z,5.13
2019-01-08T03:33:14.558Z,6.73
2019-01-08T03:35:43.817Z,6.20
2019-01-08T03:38:13.072Z,5.57
2019-01-08T03:40:42.316Z,4.00
2019-01-08T03:43:11.567Z,3.97
2019-01-08T03:45:40.839Z,2.73
2019-01-08T03:48:10.079Z,2.70
2019-01-08T03:50:39.371Z,2.93
2019-01-08T03:53:08.631Z,3.13
2019-01-08T03:55:37.891Z,3.13
2019-01-08T03:58:07.135Z,3.13
2019-01-08T04:00:36.384Z,3.43
2019-01-08T04:03:05.641Z,3.03
2019-01-08T04:05:34.920Z,2.87
2019-01-08T04:08:04.203Z,3.17
2019-01-08T04:10:35.420Z,3.07
2019-01-08T04:13:04.645Z,3.50
2019-01-08T04:15:33.886Z,3.07
2019-01-08T04:18:03.140Z,3.13
2019-01-08T04:20:33.339Z,2.97
2019-01-08T04:23:04.221Z,3.50
2019-01-08T04:25:33.466Z,3.03
2019-01-08T04:28:02.715Z,3.10
2019-01-08T04:30:31.951Z,3.40
2019-01-08T04:33:02.160Z,3.17
2019-01-08T04:35:32.364Z,2.90
2019-01-08T04:38:01.617Z,3.37
2019-01-08T04:40:30.859Z,2.87
2019-01-08T04:43:00.097Z,2.93
2019-01-08T04:45:29.353Z,4.20
2019-01-08T04:47:58.592Z,2.97
2019-01-08T04:50:27.834Z,3.00
2019-01-08T04:52:57.108Z,3.20
2019-01-08T04:55:26.381Z,3.20
2019-01-08T04:57:55.629Z,3.43
2019-01-08T05:00:24.869Z,2.97
2019-01-08T05:02:55.133Z,2.90
2019-01-08T05:05:24.393Z,3.57
2019-01-08T05:07:53.633Z,3.17
2019-01-08T05:10:22.891Z,2.70
2019-01-08T05:12:52.152Z,3.43
2019-01-08T05:15:21.417Z,3.37
2019-01-08T05:17:50.654Z,3.40
2019-01-08T05:20:19.908Z,3.10
2019-01-08T05:22:49.130Z,3.00
2019-01-08T05:25:18.405Z,2.97
2019-01-08T05:27:47.657Z,2.80
2019-01-08T05:30:16.911Z,2.90
2019-01-08T05:32:46.229Z,2.77
2019-01-08T05:35:15.564Z,3.23
2019-01-08T05:37:45.810Z,3.30
2019-01-08T05:40:15.060Z,3.73
2019-01-08T05:42:44.332Z,3.33
2019-01-08T05:45:13.584Z,3.10
2019-01-08T05:47:42.899Z,3.13
2019-01-08T05:50:12.139Z,3.53
2019-01-08T05:52:41.403Z,3.67
2019-01-08T05:55:10.654Z,4.10
2019-01-08T05:57:40.917Z,3.87
2019-01-08T06:00:16.382Z,3.17
2019-01-08T06:02:41.269Z,2.40
2019-01-08T06:05:10.493Z,2.30
2019-01-08T06:07:39.740Z,2.00
2019-01-08T06:10:09.944Z,2.43
2019-01-08T06:12:39.181Z,2.50
2019-01-08T06:15:09.465Z,3.77
2019-01-08T06:17:38.721Z,7.93
2019-01-08T06:20:07.961Z,3.17
2019-01-08T06:22:37.180Z,2.90
2019-01-08T06:25:06.415Z,2.57
2019-01-08T06:27:36.629Z,2.80
2019-01-08T06:30:07.315Z,2.50
2019-01-08T06:32:37.470Z,2.60
2019-01-08T06:35:06.703Z,2.20
2019-01-08T06:37:35.944Z,2.17
2019-01-08T06:40:06.449Z,2.37
2019-01-08T06:42:35.666Z,2.27
2019-01-08T06:45:05.808Z,2.77
2019-01-08T06:47:35.059Z,3.77
2019-01-08T06:50:06.554Z,7.47
2019-01-08T06:52:35.811Z,4.80
2019-01-08T06:55:06.918Z,3.50
2019-01-08T06:57:37.141Z,1.77
2019-01-08T07:00:08.922Z,2.43
2019-01-08T07:02:38.401Z,2.10
2019-01-08T07:05:07.721Z,2.37
2019-01-08T07:07:37.057Z,2.33
2019-01-08T07:10:07.457Z,2.67
2019-01-08T07:12:36.707Z,3.13
2019-01-08T07:15:06.344Z,2.87
2019-01-08T07:17:35.598Z,3.53
2019-01-08T07:20:06.288Z,3.67
2019-01-08T07:22:35.566Z,6.80
2019-01-08T07:25:06.068Z,10.10
2019-01-08T07:27:35.326Z,9.47
2019-01-08T07:30:04.730Z,8.63
2019-01-08T07:32:33.995Z,8.03
2019-01-08T07:35:03.240Z,7.87
2019-01-08T07:37:32.518Z,9.17
2019-01-08T07:40:02.751Z,9.13
2019-01-08T07:42:32.967Z,9.17
2019-01-08T07:45:03.245Z,5.90
2019-01-08T07:47:32.515Z,5.17
2019-01-08T07:50:01.770Z,3.57
2019-01-08T07:52:31.006Z,3.03
2019-01-08T07:55:01.224Z,3.40
2019-01-08T07:57:30.452Z,3.97
2019-01-08T07:59:59.719Z,4.43
2019-01-08T08:02:29.930Z,5.80
2019-01-08T08:04:59.194Z,5.63
2019-01-08T08:07:28.425Z,6.23
2019-01-08T08:09:57.690Z,7.03
2019-01-08T08:12:26.930Z,9.23
2019-01-08T08:14:56.314Z,7.83
2019-01-08T08:17:25.534Z,7.23
2019-01-08T08:19:54.783Z,5.90
2019-01-08T08:22:24.029Z,6.03
2019-01-08T08:24:56.048Z,4.60
2019-01-08T08:27:25.235Z,4.43
2019-01-08T08:29:54.470Z,3.13
2019-01-08T08:32:23.730Z,3.33
2019-01-08T08:34:52.978Z,4.27
2019-01-08T08:37:22.243Z,3.47
2019-01-08T08:39:51.467Z,3.67
2019-01-08T08:42:20.735Z,3.17
2019-01-08T08:44:49.967Z,3.03
2019-01-08T08:47:19.235Z,2.90
2019-01-08T08:49:49.381Z,2.93
2019-01-08T08:52:20.544Z,2.97
2019-01-08T08:54:50.753Z,3.20
2019-01-08T08:57:20.026Z,2.70
2019-01-08T08:59:49.274Z,3.33
2019-01-08T09:02:18.519Z,2.80
2019-01-08T09:04:47.758Z,3.33
2019-01-08T09:07:17.035Z,3.03
2019-01-08T09:09:46.294Z,2.97
2019-01-08T09:12:15.547Z,3.20
2019-01-08T09:14:44.799Z,3.60
2019-01-08T09:17:14.035Z,3.10
2019-01-08T09:19:43.298Z,3.13
2019-01-08T09:22:12.535Z,3.23
2019-01-08T09:24:42.788Z,3.37
2019-01-08T09:27:12.015Z,2.80
2019-01-08T09:29:41.279Z,3.47
2019-01-08T09:32:10.522Z,3.57
2019-01-08T09:34:39.778Z,3.63
2019-01-08T09:37:09.007Z,3.50
2019-01-08T09:39:38.245Z,3.20
2019-01-08T09:42:07.496Z,3.67
2019-01-08T09:44:36.753Z,4.00
2019-01-08T09:47:05.988Z,3.73
2019-01-08T09:49:35.269Z,3.90
2019-01-08T09:52:04.529Z,3.30
2019-01-08T09:54:33.782Z,3.60
2019-01-08T09:57:04.020Z,4.00
2019-01-08T09:59:33.261Z,3.43
2019-01-08T10:02:02.504Z,3.60
2019-01-08T10:04:31.757Z,4.33
2019-01-08T10:07:01.011Z,5.40
2019-01-08T10:09:31.220Z,5.90
2019-01-08T10:12:00.477Z,4.80
2019-01-08T10:14:29.717Z,4.13
2019-01-08T10:16:58.987Z,4.53
2019-01-08T10:19:30.170Z,4.37
2019-01-08T10:21:59.442Z,4.60
2019-01-08T10:24:28.682Z,4.80
2019-01-08T10:26:57.962Z,4.27
2019-01-08T10:29:27.228Z,3.93
2019-01-08T10:31:58.402Z,4.50
2019-01-08T10:34:28.622Z,4.80
2019-01-08T10:36:57.859Z,4.77
2019-01-08T10:39:27.112Z,4.90
2019-01-08T10:41:57.359Z,4.37
2019-01-08T10:44:26.602Z,4.57
2019-01-08T10:46:55.909Z,4.50
2019-01-08T10:49:25.171Z,5.17
2019-01-08T10:51:54.427Z,4.07
2019-01-08T10:54:23.667Z,5.07
2019-01-08T10:56:52.914Z,4.27
2019-01-08T10:59:22.206Z,4.97
2019-01-08T11:01:51.448Z,4.47
2019-01-08T11:04:20.701Z,4.60
2019-01-08T11:06:57.904Z,4.07
2019-01-08T11:09:27.189Z,3.73
2019-01-08T11:11:56.434Z,4.07
2019-01-08T11:14:25.695Z,3.97
2019-01-08T11:16:54.955Z,3.97
2019-01-08T11:19:24.232Z,3.77
2019-01-08T11:21:53.505Z,4.40
2019-01-08T11:24:23.764Z,3.83
2019-01-08T11:26:53.022Z,4.50
2019-01-08T11:29:22.262Z,3.87
2019-01-08T11:31:53.495Z,3.40
2019-01-08T11:34:22.754Z,3.03
2019-01-08T11:36:52.043Z,3.70
2019-01-08T11:39:21.314Z,3.03
2019-01-08T11:41:51.560Z,3.30
2019-01-08T11:44:20.795Z,3.43
2019-01-08T11:46:50.041Z,3.13
2019-01-08T11:49:19.294Z,3.43
2019-01-08T11:51:48.522Z,3.00
2019-01-08T11:54:17.785Z,3.50
2019-01-08T11:56:47.035Z,3.23
2019-01-08T11:59:16.278Z,3.43
2019-01-08T12:01:46.180Z,2.93
2019-01-08T12:04:15.443Z,2.20
2019-01-08T12:06:45.657Z,2.57
2019-01-08T12:09:14.906Z,2.53
2019-01-08T12:11:44.161Z,2.00
2019-01-08T12:14:13.417Z,2.13
2019-01-08T12:16:42.718Z,2.20
2019-01-08T12:19:12.857Z,2.43
2019-01-08T12:21:42.126Z,3.07
2019-01-08T12:24:11.379Z,3.30
2019-01-08T12:26:40.634Z,3.37
2019-01-08T12:29:09.879Z,3.60
2019-01-08T12:31:40.169Z,3.80
2019-01-08T12:34:09.421Z,3.43
2019-01-08T12:36:38.672Z,4.30
2019-01-08T12:39:07.915Z,4.10
2019-01-08T12:41:37.586Z,3.77
2019-01-08T12:44:06.827Z,3.70
2019-01-08T12:46:36.073Z,4.70
2019-01-08T12:49:05.336Z,3.60
2019-01-08T12:51:34.560Z,4.07
2019-01-08T12:54:03.803Z,4.30
2019-01-08T12:56:33.115Z,4.17
2019-01-08T12:59:02.618Z,4.37
2019-01-08T13:01:31.892Z,3.77
2019-01-08T13:04:01.133Z,3.93
2019-01-08T13:06:30.408Z,3.30
2019-01-08T13:09:00.642Z,3.30
2019-01-08T13:11:30.126Z,4.57
2019-01-08T13:13:59.367Z,3.43
2019-01-08T13:16:28.615Z,3.90
2019-01-08T13:18:57.880Z,3.43
2019-01-08T13:21:27.134Z,3.20
2019-01-08T13:23:56.398Z,3.20
2019-01-08T13:26:26.643Z,3.27
2019-01-08T13:28:55.893Z,3.27
2019-01-08T13:31:25.143Z,3.90
2019-01-08T13:33:54.405Z,3.57
2019-01-08T13:36:23.644Z,3.50
2019-01-08T13:38:52.912Z,3.30
2019-01-08T13:41:22.176Z,3.67
2019-01-08T13:43:51.436Z,3.77
2019-01-08T13:46:21.669Z,3.70
2019-01-08T13:48:50.990Z,3.10
2019-01-08T13:51:20.229Z,2.63
2019-01-08T13:53:49.468Z,2.50
2019-01-08T13:56:19.697Z,1.43
2019-01-08T13:58:48.926Z,1.53
2019-01-08T14:01:18.172Z,2.07
2019-01-08T14:03:48.408Z,1.93
2019-01-08T14:06:17.847Z,2.13
2019-01-08T14:08:47.358Z,2.00
2019-01-08T14:11:16.621Z,1.83
2019-01-08T14:13:46.044Z,2.00
2019-01-08T14:16:15.291Z,2.50
2019-01-08T14:18:45.424Z,2.40
2019-01-08T14:21:14.700Z,2.97
2019-01-08T14:23:45.886Z,3.30
2019-01-08T14:26:15.126Z,3.77
2019-01-08T14:28:44.382Z,3.00
2019-01-08T14:31:13.705Z,3.07
2019-01-08T14:33:43.910Z,2.87
2019-01-08T14:36:13.151Z,2.07
2019-01-08T14:38:42.401Z,2.30
2019-01-08T14:41:12.625Z,2.93
2019-01-08T14:43:41.860Z,2.53
2019-01-08T14:46:11.103Z,2.90
2019-01-08T14:48:41.194Z,2.47
2019-01-08T14:51:11.388Z,1.90
2019-01-08T14:53:41.622Z,2.47
2019-01-08T14:56:11.901Z,2.10
2019-01-08T14:58:41.167Z,2.07
2019-01-08T15:01:10.486Z,2.13
2019-01-08T15:03:40.741Z,2.30
2019-01-08T15:06:09.999Z,2.07
2019-01-08T15:08:39.277Z,2.63
2019-01-08T15:11:08.534Z,2.70
2019-01-08T15:13:37.785Z,2.80
2019-01-08T15:16:07.095Z,2.80
2019-01-08T15:18:36.359Z,2.13
2019-01-08T15:21:06.551Z,2.17
2019-01-08T15:23:35.790Z,2.73
2019-01-08T15:26:05.054Z,2.27
2019-01-08T15:28:34.374Z,3.03
2019-01-08T15:31:04.566Z,3.40
2019-01-08T15:33:33.805Z,3.10
2019-01-08T15:36:03.056Z,3.57
2019-01-08T15:38:32.280Z,3.93
2019-01-08T15:41:02.480Z,2.60
2019-01-08T15:43:31.729Z,2.90
2019-01-08T15:46:01.049Z,3.07
2019-01-08T15:48:30.284Z,2.80
2019-01-08T15:50:59.535Z,3.40
2019-01-08T15:53:28.788Z,3.40
2019-01-08T15:55:58.049Z,3.17
2019-01-08T15:58:27.293Z,2.93
2019-01-08T16:00:56.541Z,3.43
2019-01-08T16:03:25.786Z,3.20
2019-01-08T16:05:55.020Z,3.20
2019-01-08T16:08:24.258Z,2.90
2019-01-08T16:10:53.515Z,3.20
2019-01-08T16:13:22.580Z,3.50
2019-01-08T16:15:51.842Z,2.70
2019-01-08T16:18:21.094Z,3.10
2019-01-08T16:20:53.314Z,2.77
2019-01-08T16:23:21.263Z,3.27
2019-01-08T16:25:50.508Z,3.17
2019-01-08T16:28:19.795Z,2.90
2019-01-08T16:30:50.035Z,3.40
2019-01-08T16:33:19.282Z,3.10
2019-01-08T16:35:48.583Z,3.10
2019-01-08T16:38:17.852Z,4.03
2019-01-08T16:40:47.093Z,2.77
2019-01-08T16:43:16.355Z,2.93
2019-01-08T16:45:46.535Z,2.63
2019-01-08T16:48:15.788Z,2.63
2019-01-08T16:50:45.034Z,3.03
2019-01-08T16:53:14.303Z,3.23
2019-01-08T16:55:43.525Z,3.70
2019-01-08T16:58:12.773Z,3.07
2019-01-08T17:00:42.009Z,3.10
2019-01-08T17:03:11.329Z,3.20
2019-01-08T17:05:41.577Z,3.40
2019-01-08T17:08:10.866Z,2.80
2019-01-08T17:10:40.079Z,2.73
2019-01-08T17:13:09.352Z,3.00
2019-01-08T17:15:39.518Z,3.17
2019-01-08T17:18:10.745Z,4.07
2019-01-08T17:20:39.992Z,3.03
2019-01-08T17:23:09.276Z,3.00
2019-01-08T17:25:38.538Z,2.73
2019-01-08T17:28:07.795Z,3.03
2019-01-08T17:30:37.030Z,2.67
2019-01-08T17:33:06.260Z,2.63
2019-01-08T17:35:35.523Z,3.50
2019-01-08T17:38:04.765Z,2.87
2019-01-08T17:40:34.974Z,4.27
2019-01-08T17:43:10.077Z,2.93
2019-01-08T17:45:40.314Z,4.63
2019-01-08T17:48:09.562Z,3.20
2019-01-08T17:50:38.810Z,3.43
2019-01-08T17:53:08.030Z,3.10
2019-01-08T17:55:38.227Z,3.83
2019-01-08T17:58:29.796Z,3.10
2019-01-08T18:00:59.317Z,3.77
2019-01-08T18:03:28.585Z,3.60
2019-01-08T18:05:57.835Z,3.13
2019-01-08T18:08:27.238Z,3.97
2019-01-08T18:10:56.514Z,2.83
2019-01-08T18:13:25.782Z,3.23
2019-01-08T18:15:55.993Z,3.20
2019-01-08T18:18:27.235Z,2.80
2019-01-08T18:20:56.475Z,2.93
2019-01-08T18:23:25.734Z,3.00
2019-01-08T18:25:54.978Z,2.90
2019-01-08T18:28:25.140Z,2.57
2019-01-08T18:30:54.384Z,4.30
2019-01-08T18:33:23.638Z,3.33
2019-01-08T18:35:53.139Z,2.57
2019-01-08T18:38:22.371Z,2.57
2019-01-08T18:40:52.564Z,3.47
2019-01-08T18:43:21.817Z,3.00
2019-01-08T18:45:51.988Z,2.90
2019-01-08T18:48:21.228Z,3.00
2019-01-08T18:50:50.483Z,2.90
2019-01-08T18:53:19.816Z,3.47
2019-01-08T18:55:49.069Z,2.77
2019-01-08T18:58:19.234Z,3.27
2019-01-08T19:00:48.542Z,3.20
2019-01-08T19:03:17.797Z,4.20
2019-01-08T19:05:47.152Z,3.13
2019-01-08T19:08:16.424Z,2.03
2019-01-08T19:10:46.644Z,1.80
2019-01-08T19:13:15.964Z,2.00
2019-01-08T19:15:46.216Z,2.10
2019-01-08T19:18:15.484Z,1.90
2019-01-08T19:20:45.692Z,1.50
2019-01-08T19:23:15.913Z,1.70
2019-01-08T19:25:45.153Z,2.20
2019-01-08T19:28:14.421Z,2.13
2019-01-08T19:30:43.660Z,2.37
2019-01-08T19:33:12.911Z,3.53
2019-01-08T19:35:42.147Z,3.23
2019-01-08T19:38:12.348Z,2.80
2019-01-08T19:40:41.578Z,2.90
2019-01-08T19:43:10.831Z,3.50
2019-01-08T19:45:40.077Z,3.40
2019-01-08T19:48:09.472Z,3.87
2019-01-08T19:50:38.699Z,3.60
2019-01-08T19:53:07.946Z,3.57
2019-01-08T19:55:37.198Z,3.17
2019-01-08T19:58:06.420Z,4.10
2019-01-08T20:00:35.662Z,3.43
2019-01-08T20:03:04.917Z,3.20
2019-01-08T20:05:35.159Z,3.93
2019-01-08T20:08:04.522Z,3.93
2019-01-08T20:10:33.744Z,3.27
2019-01-08T20:13:02.983Z,3.20
2019-01-08T20:15:34.195Z,3.17
2019-01-08T20:18:03.444Z,3.50
2019-01-08T20:20:32.688Z,3.53
2019-01-08T20:23:01.926Z,3.03
2019-01-08T20:25:31.167Z,3.30
2019-01-08T20:28:00.423Z,2.97
2019-01-08T20:30:29.662Z,2.80
2019-01-08T20:32:59.971Z,2.40
2019-01-08T20:35:29.297Z,2.40
2019-01-08T20:37:58.545Z,2.70
2019-01-08T20:40:27.787Z,2.50
2019-01-08T20:42:57.065Z,3.03
2019-01-08T20:45:26.289Z,2.63
2019-01-08T20:47:56.519Z,2.50
2019-01-08T20:50:27.665Z,2.33
2019-01-08T20:52:58.054Z,2.77
2019-01-08T20:55:27.348Z,2.87
2019-01-08T20:57:56.586Z,2.30
2019-01-08T21:00:25.836Z,2.70
2019-01-08T21:02:55.094Z,2.97
2019-01-08T21:05:24.381Z,2.80
2019-01-08T21:07:53.685Z,2.70
2019-01-08T21:10:23.014Z,2.73
2019-01-08T21:12:52.267Z,2.50
2019-01-08T21:15:22.446Z,2.53
2019-01-08T21:17:51.690Z,2.60
2019-01-08T21:20:20.946Z,2.40
2019-01-08T21:22:50.185Z,2.70
2019-01-08T21:25:19.473Z,2.63
2019-01-08T21:27:49.228Z,2.20
2019-01-08T21:30:18.476Z,2.33
2019-01-08T21:32:47.714Z,2.30
2019-01-08T21:35:16.969Z,2.07
2019-01-08T21:37:46.230Z,1.97
2019-01-08T21:40:15.460Z,1.97
2019-01-08T21:42:44.688Z,2.73
2019-01-08T21:45:13.919Z,2.10
2019-01-08T21:47:43.182Z,1.87
2019-01-08T21:50:12.427Z,2.40
2019-01-08T21:52:42.632Z,1.80
2019-01-08T21:55:11.960Z,1.87
2019-01-08T21:57:41.203Z,2.03
2019-01-08T22:00:10.451Z,2.10
2019-01-08T22:02:39.714Z,2.23
2019-01-08T22:05:08.940Z,2.40
2019-01-08T22:07:38.264Z,2.10
2019-01-08T22:10:08.486Z,2.27
2019-01-08T22:12:37.735Z,2.40
2019-01-08T22:15:07.396Z,2.27
2019-01-08T22:17:36.636Z,2.20
2019-01-08T22:20:08.740Z,1.97
2019-01-08T22:22:37.942Z,2.33
2019-01-08T22:25:07.248Z,2.50
2019-01-08T22:27:36.493Z,2.27
2019-01-08T22:30:07.485Z,2.40
2019-01-08T22:32:36.716Z,2.57
2019-01-08T22:35:06.123Z,2.10
2019-01-08T22:37:35.361Z,2.53
2019-01-08T22:40:06.655Z,2.50
2019-01-08T22:42:36.889Z,2.10
2019-01-08T22:45:07.189Z,2.10
2019-01-08T22:47:36.429Z,2.53
2019-01-08T22:50:07.529Z,2.40
2019-01-08T22:52:37.938Z,2.13
2019-01-08T22:55:07.220Z,2.20
2019-01-08T22:57:36.463Z,2.40
2019-01-08T23:00:11.489Z,2.47
2019-01-08T23:02:40.742Z,2.43
2019-01-08T23:05:10.956Z,2.00
2019-01-08T23:07:40.587Z,1.67
2019-01-08T23:10:09.835Z,1.60
2019-01-08T23:12:40.059Z,1.60
2019-01-08T23:15:09.391Z,2.00
2019-01-08T23:17:38.635Z,1.97
2019-01-08T23:20:08.342Z,1.80
2019-01-08T23:22:37.588Z,2.33
2019-01-08T23:25:06.870Z,2.43
2019-01-08T23:27:36.104Z,3.40
2019-01-08T23:30:07.595Z,3.20
2019-01-08T23:32:36.832Z,2.93
2019-01-08T23:35:06.828Z,2.33
2019-01-08T23:37:36.077Z,1.77
2019-01-08T23:40:07.663Z,2.03
2019-01-08T23:42:36.951Z,1.80
2019-01-08T23:45:08.316Z,1.60
2019-01-08T23:47:37.594Z,1.70
2019-01-08T23:50:07.471Z,1.87
2019-01-08T23:52:48.825Z,2.00
2019-01-08T23:55:20.094Z,2.00
2019-01-08T23:57:50.608Z,2.30
